Time;durP1;ratioP1;P1;durP2;ratioP2;P2;SDS_P1;SDS_P2;PMS_P1;PMS_P2;Temp;Humidity;BMP_temperature;BMP_pressure;BME280_temperature;BME280_humidity;BME280_pressure;Samples;Min_cycle;Max_cycle;Signal;HPM_P1;HPM_P2
2023/05/26 00:02:14;;;;;;;9.00;8.20;;;;;;;;;;107467;283;46461;-40
2023/05/26 00:04:51;;;;;;;9.10;8.20;;;;;;;;;;107504;283;42926;-39
2023/05/26 00:07:24;;;;;;;9.10;8.20;;;;;;;;;;107504;283;41946;-39
2023/05/26 00:09:57;;;;;;;9.50;8.60;;;;;;;;;;107493;286;38609;-39
2023/05/26 00:12:31;;;;;;;9.30;8.40;;;;;;;;;;107439;283;45420;-39
2023/05/26 00:15:06;;;;;;;9.20;8.30;;;;;;;;;;107513;286;42833;-39
2023/05/26 00:17:40;;;;;;;9.20;8.30;;;;;;;;;;107492;286;41986;-39
2023/05/26 00:20:15;;;;;;;9.20;8.30;;;;;;;;;;107489;283;38541;-39
2023/05/26 00:22:48;;;;;;;8.90;8.00;;;;;;;;;;107570;283;45228;-39
2023/05/26 00:25:22;;;;;;;9.20;8.40;;;;;;;;;;107467;286;43000;-39
2023/05/26 00:27:56;;;;;;;9.40;8.50;;;;;;;;;;107483;283;43215;-39
2023/05/26 00:30:29;;;;;;;9.30;8.40;;;;;;;;;;107488;286;38918;-39
2023/05/26 00:33:02;;;;;;;9.20;8.30;;;;;;;;;;107441;283;44524;-40
2023/05/26 00:35:36;;;;;;;9.50;8.60;;;;;;;;;;107491;279;42841;-39
2023/05/26 00:38:09;;;;;;;9.40;8.50;;;;;;;;;;107456;283;43206;-40
2023/05/26 00:40:43;;;;;;;9.10;8.20;;;;;;;;;;107508;283;38691;-40
2023/05/26 00:43:17;;;;;;;9.60;8.70;;;;;;;;;;107428;282;46573;-40
2023/05/26 00:45:51;;;;;;;9.20;8.40;;;;;;;;;;107383;285;42657;-40
2023/05/26 00:48:25;;;;;;;9.50;8.70;;;;;;;;;;107482;283;41922;-39
2023/05/26 00:50:59;;;;;;;9.30;8.50;;;;;;;;;;107506;283;38612;-40
2023/05/26 00:53:32;;;;;;;9.20;8.40;;;;;;;;;;107598;279;44984;-39
2023/05/26 00:56:06;;;;;;;9.70;8.80;;;;;;;;;;107480;283;42680;-39
2023/05/26 00:58:41;;;;;;;9.20;8.30;;;;;;;;;;107373;283;175525;-39
2023/05/26 01:01:16;;;;;;;8.90;8.10;;;;;;;;;;107462;283;38724;-39
2023/05/26 01:03:51;;;;;;;8.90;8.10;;;;;;;;;;107457;283;45762;-39
2023/05/26 01:06:25;;;;;;;9.40;8.60;;;;;;;;;;107487;283;42806;-40
2023/05/26 01:08:58;;;;;;;9.10;8.30;;;;;;;;;;107566;286;42055;-39
2023/05/26 01:11:35;;;;;;;9.00;8.10;;;;;;;;;;107548;283;38609;-40
2023/05/26 01:14:15;;;;;;;9.50;8.60;;;;;;;;;;107620;283;45379;-40
2023/05/26 01:16:56;;;;;;;9.50;8.60;;;;;;;;;;107078;283;537594;-40
2023/05/26 01:20:06;;;;;;;9.20;8.30;;;;;;;;;;107475;283;41882;-39
2023/05/26 01:23:11;;;;;;;9.60;8.70;;;;;;;;;;107492;283;39862;-40
2023/05/26 01:26:22;;;;;;;8.80;8.00;;;;;;;;;;107494;286;39459;-39
2023/05/26 01:29:03;;;;;;;9.00;8.20;;;;;;;;;;107265;289;43942;-40
2023/05/26 01:31:39;;;;;;;9.00;8.20;;;;;;;;;;107516;283;41971;-39
2023/05/26 01:34:12;;;;;;;9.20;8.40;;;;;;;;;;107506;286;38729;-40
2023/05/26 01:36:45;;;;;;;9.00;8.20;;;;;;;;;;107502;283;39605;-40
2023/05/26 01:39:20;;;;;;;9.20;8.30;;;;;;;;;;107491;283;42711;-40
2023/05/26 01:42:06;;;;;;;8.80;8.00;;;;;;;;;;107506;286;42453;-39
2023/05/26 01:44:54;;;;;;;9.50;8.60;;;;;;;;;;107454;283;43767;-39
2023/05/26 01:47:30;;;;;;;9.10;8.30;;;;;;;;;;107430;283;40731;-40
2023/05/26 01:50:06;;;;;;;8.80;8.00;;;;;;;;;;107504;286;42993;-40
2023/05/26 01:52:44;;;;;;;9.30;8.40;;;;;;;;;;107558;286;42097;-39
2023/05/26 01:55:19;;;;;;;9.20;8.30;;;;;;;;;;107538;286;44849;-40
2023/05/26 01:57:55;;;;;;;9.40;8.60;;;;;;;;;;107558;286;39502;-40
2023/05/26 02:00:29;;;;;;;9.10;8.30;;;;;;;;;;107580;286;42806;-40
2023/05/26 02:03:05;;;;;;;9.30;8.50;;;;;;;;;;107540;286;43362;-38
2023/05/26 02:05:38;;;;;;;9.20;8.30;;;;;;;;;;107559;286;44957;-39
2023/05/26 02:08:13;;;;;;;9.30;8.50;;;;;;;;;;107561;291;39509;-40
2023/05/26 02:10:46;;;;;;;9.40;8.50;;;;;;;;;;107557;286;42621;-39
2023/05/26 02:13:20;;;;;;;9.40;8.50;;;;;;;;;;107528;286;42310;-40
2023/05/26 02:15:53;;;;;;;9.10;8.30;;;;;;;;;;107528;286;44056;-39
2023/05/26 02:18:26;;;;;;;9.80;8.90;;;;;;;;;;107483;283;39563;-39
2023/05/26 02:21:00;;;;;;;9.80;8.90;;;;;;;;;;107464;283;42654;-39
2023/05/26 02:23:34;;;;;;;9.80;8.90;;;;;;;;;;107478;283;41918;-41
2023/05/26 02:26:08;;;;;;;9.40;8.50;;;;;;;;;;107465;283;44425;-39
2023/05/26 02:28:41;;;;;;;9.40;8.50;;;;;;;;;;107472;279;40092;-39
2023/05/26 02:31:14;;;;;;;9.20;8.40;;;;;;;;;;107501;283;42795;-39
2023/05/26 02:33:48;;;;;;;10.00;9.00;;;;;;;;;;106804;286;894123;-39
2023/05/26 02:36:21;;;;;;;9.30;8.40;;;;;;;;;;107461;283;44764;-39
2023/05/26 02:38:55;;;;;;;9.80;8.80;;;;;;;;;;107437;283;39812;-39
2023/05/26 02:41:28;;;;;;;9.30;8.30;;;;;;;;;;107382;283;175554;-39
2023/05/26 02:44:01;;;;;;;9.00;8.20;;;;;;;;;;107445;283;43173;-39
2023/05/26 02:46:35;;;;;;;9.00;8.20;;;;;;;;;;107506;283;44753;-39
2023/05/26 02:49:08;;;;;;;9.20;8.40;;;;;;;;;;107469;283;39705;-39
2023/05/26 02:51:41;;;;;;;9.20;8.20;;;;;;;;;;107511;283;42692;-39
2023/05/26 02:54:14;;;;;;;9.00;8.10;;;;;;;;;;107465;283;42152;-39
2023/05/26 02:56:48;;;;;;;8.90;8.00;;;;;;;;;;107485;283;44534;-39
2023/05/26 02:59:21;;;;;;;8.70;7.90;;;;;;;;;;107516;286;40900;-39
2023/05/26 03:01:56;;;;;;;8.60;7.80;;;;;;;;;;107514;279;42846;-39
2023/05/26 03:04:29;;;;;;;8.20;7.40;;;;;;;;;;107515;283;42021;-40
2023/05/26 03:07:02;;;;;;;8.70;7.90;;;;;;;;;;107479;283;45041;-39
2023/05/26 03:09:38;;;;;;;8.70;7.70;;;;;;;;;;107480;283;40754;-39
2023/05/26 03:12:15;;;;;;;9.70;8.10;;;;;;;;;;107538;286;42995;-40
2023/05/26 03:14:49;;;;;;;8.70;7.80;;;;;;;;;;107458;286;41887;-39
2023/05/26 03:17:22;;;;;;;8.10;7.30;;;;;;;;;;107511;283;46101;-39
2023/05/26 03:19:56;;;;;;;8.30;7.50;;;;;;;;;;107502;283;39780;-39
2023/05/26 03:22:30;;;;;;;7.90;7.10;;;;;;;;;;107535;283;43968;-39
2023/05/26 03:25:24;;;;;;;8.10;7.40;;;;;;;;;;107453;283;41909;-40
2023/05/26 03:27:58;;;;;;;8.20;7.40;;;;;;;;;;107479;279;38546;-40
2023/05/26 03:30:31;;;;;;;8.20;7.40;;;;;;;;;;107496;283;39743;-39
2023/05/26 03:33:05;;;;;;;7.70;6.90;;;;;;;;;;107522;283;42683;-39
2023/05/26 03:35:38;;;;;;;7.80;7.00;;;;;;;;;;107455;286;41924;-39
2023/05/26 03:38:12;;;;;;;7.90;7.10;;;;;;;;;;107519;286;38543;-39
2023/05/26 03:40:45;;;;;;;7.90;7.10;;;;;;;;;;107507;283;39472;-39
2023/05/26 03:43:19;;;;;;;7.50;6.80;;;;;;;;;;107512;283;42795;-39
2023/05/26 03:45:52;;;;;;;8.00;7.30;;;;;;;;;;107438;283;41897;-41
2023/05/26 03:48:25;;;;;;;7.70;7.00;;;;;;;;;;107483;286;38796;-39
2023/05/26 03:50:59;;;;;;;8.10;7.30;;;;;;;;;;107481;283;39633;-39
2023/05/26 03:53:32;;;;;;;8.20;7.30;;;;;;;;;;107463;283;42677;-39
2023/05/26 03:56:07;;;;;;;8.10;7.30;;;;;;;;;;107464;286;43159;-39
2023/05/26 03:58:40;;;;;;;8.10;7.30;;;;;;;;;;107528;283;38625;-40
2023/05/26 04:01:15;;;;;;;7.90;7.20;;;;;;;;;;107502;283;39693;-39
2023/05/26 04:03:49;;;;;;;8.10;7.30;;;;;;;;;;107490;283;42887;-39
2023/05/26 04:06:24;;;;;;;8.10;7.30;;;;;;;;;;107323;285;41935;-39
2023/05/26 04:08:59;;;;;;;8.10;7.30;;;;;;;;;;107501;283;38539;-40
2023/05/26 04:11:33;;;;;;;8.00;7.20;;;;;;;;;;107499;283;39459;-39
2023/05/26 04:14:07;;;;;;;7.80;7.10;;;;;;;;;;107501;283;43927;-40
2023/05/26 04:16:40;;;;;;;7.60;6.90;;;;;;;;;;107355;283;175546;-39
2023/05/26 04:19:14;;;;;;;8.20;7.30;;;;;;;;;;107522;283;38531;-40
2023/05/26 04:21:48;;;;;;;7.70;6.90;;;;;;;;;;107555;283;39510;-39
2023/05/26 04:24:22;;;;;;;7.80;6.90;;;;;;;;;;107505;283;42623;-39
2023/05/26 04:26:56;;;;;;;7.80;7.00;;;;;;;;;;107349;286;42128;-39
2023/05/26 04:29:30;;;;;;;8.10;7.30;;;;;;;;;;107548;286;38640;-39
2023/05/26 04:32:04;;;;;;;8.00;7.20;;;;;;;;;;107537;283;41679;-39
2023/05/26 04:34:37;;;;;;;7.80;7.00;;;;;;;;;;107499;283;42636;-39
2023/05/26 04:37:11;;;;;;;7.50;6.80;;;;;;;;;;107453;279;43278;-39
2023/05/26 04:39:46;;;;;;;7.60;6.80;;;;;;;;;;107548;283;39883;-39
2023/05/26 04:42:20;;;;;;;7.50;6.60;;;;;;;;;;107579;286;41077;-40
2023/05/26 04:44:55;;;;;;;7.50;6.70;;;;;;;;;;107541;286;43124;-41
2023/05/26 04:47:32;;;;;;;7.50;6.70;;;;;;;;;;107499;284;42429;-40
2023/05/26 04:50:07;;;;;;;7.60;6.70;;;;;;;;;;107497;286;38548;-40
2023/05/26 04:52:41;;;;;;;7.50;6.70;;;;;;;;;;107518;283;40859;-40
2023/05/26 04:55:14;;;;;;;7.60;6.30;;;;;;;;;;107375;286;175531;-41
2023/05/26 04:57:48;;;;;;;6.90;6.20;;;;;;;;;;107448;286;41905;-39
2023/05/26 05:00:24;;;;;;;6.80;6.10;;;;;;;;;;107544;283;38921;-41
2023/05/26 05:02:57;;;;;;;7.10;6.30;;;;;;;;;;107568;283;39470;-42
2023/05/26 05:05:31;;;;;;;7.60;6.50;;;;;;;;;;107523;283;42737;-39
2023/05/26 05:08:05;;;;;;;7.40;6.50;;;;;;;;;;107466;286;43152;-39
2023/05/26 05:10:38;;;;;;;7.40;6.60;;;;;;;;;;107525;283;39922;-39
2023/05/26 05:13:12;;;;;;;7.40;6.50;;;;;;;;;;107378;285;39826;-43
2023/05/26 05:15:47;;;;;;;7.30;6.20;;;;;;;;;;107470;283;42809;-42
2023/05/26 05:18:21;;;;;;;6.80;5.90;;;;;;;;;;107437;286;41928;-42
2023/05/26 05:20:56;;;;;;;7.00;6.30;;;;;;;;;;107468;286;38771;-45
2023/05/26 05:23:34;;;;;;;6.20;5.60;;;;;;;;;;107523;279;39721;-42
2023/05/26 05:26:08;;;;;;;6.70;6.00;;;;;;;;;;107510;291;42649;-40
2023/05/26 05:28:42;;;;;;;6.30;5.70;;;;;;;;;;107451;283;42069;-40
2023/05/26 05:31:16;;;;;;;6.20;5.50;;;;;;;;;;107467;283;39919;-40
2023/05/26 05:33:50;;;;;;;6.50;5.60;;;;;;;;;;107508;286;39834;-41
2023/05/26 05:36:34;;;;;;;6.80;5.50;;;;;;;;;;107491;283;42999;-45
2023/05/26 05:39:09;;;;;;;7.30;6.00;;;;;;;;;;107439;283;43224;-44
2023/05/26 05:41:43;;;;;;;6.50;5.60;;;;;;;;;;107504;283;38785;-43
2023/05/26 05:44:20;;;;;;;7.20;5.70;;;;;;;;;;107470;283;40710;-40
2023/05/26 05:46:56;;;;;;;6.10;5.40;;;;;;;;;;107462;283;42849;-39
2023/05/26 05:49:31;;;;;;;6.20;5.20;;;;;;;;;;107408;283;42103;-40
2023/05/26 05:52:04;;;;;;;6.50;5.50;;;;;;;;;;107520;286;38879;-40
2023/05/26 05:54:39;;;;;;;6.70;5.80;;;;;;;;;;107514;286;39729;-40
2023/05/26 05:57:12;;;;;;;6.40;5.20;;;;;;;;;;107496;283;43006;-39
2023/05/26 05:59:45;;;;;;;6.40;5.30;;;;;;;;;;107455;286;42152;-39
2023/05/26 06:02:19;;;;;;;6.60;5.50;;;;;;;;;;107507;283;38879;-39
2023/05/26 06:04:54;;;;;;;5.80;5.20;;;;;;;;;;107498;283;40912;-38
2023/05/26 06:07:28;;;;;;;6.60;5.20;;;;;;;;;;107493;283;43009;-39
2023/05/26 06:10:01;;;;;;;7.10;5.30;;;;;;;;;;107444;279;41982;-38
2023/05/26 06:12:34;;;;;;;6.90;5.50;;;;;;;;;;107475;283;39982;-39
2023/05/26 06:15:10;;;;;;;6.80;5.10;;;;;;;;;;107492;283;39789;-39
2023/05/26 06:17:44;;;;;;;7.40;5.40;;;;;;;;;;107451;286;42635;-37
2023/05/26 06:20:18;;;;;;;6.70;5.30;;;;;;;;;;107436;283;42232;-38
2023/05/26 06:22:53;;;;;;;6.50;5.10;;;;;;;;;;107489;286;39021;-44
2023/05/26 06:25:28;;;;;;;6.50;5.40;;;;;;;;;;107497;286;39754;-43
2023/05/26 06:28:02;;;;;;;6.50;5.20;;;;;;;;;;107485;283;44325;-41
2023/05/26 06:30:36;;;;;;;6.70;4.90;;;;;;;;;;107456;283;42167;-39
2023/05/26 06:33:10;;;;;;;6.90;4.90;;;;;;;;;;107486;286;38603;-40
2023/05/26 06:35:45;;;;;;;7.70;4.80;;;;;;;;;;107504;283;40837;-39
2023/05/26 06:38:18;;;;;;;6.80;5.10;;;;;;;;;;107513;286;43939;-43
2023/05/26 06:40:51;;;;;;;6.10;4.70;;;;;;;;;;107472;286;42124;-41
2023/05/26 06:43:25;;;;;;;6.10;4.80;;;;;;;;;;107477;283;39914;-39
2023/05/26 06:45:58;;;;;;;6.30;5.00;;;;;;;;;;107467;283;39839;-41
2023/05/26 06:48:34;;;;;;;6.50;4.70;;;;;;;;;;107434;283;42893;-38
2023/05/26 06:51:08;;;;;;;6.70;4.60;;;;;;;;;;107433;279;42218;-38
2023/05/26 06:53:41;;;;;;;6.80;4.60;;;;;;;;;;107352;285;38804;-39
2023/05/26 06:56:16;;;;;;;6.10;4.60;;;;;;;;;;107335;282;39736;-39
2023/05/26 06:58:52;;;;;;;6.50;4.60;;;;;;;;;;107491;286;42654;-39
2023/05/26 07:01:26;;;;;;;6.00;4.60;;;;;;;;;;107459;286;42158;-39
2023/05/26 07:04:03;;;;;;;6.40;4.60;;;;;;;;;;107482;283;38765;-39
2023/05/26 07:06:36;;;;;;;6.10;4.60;;;;;;;;;;107496;279;39866;-38
2023/05/26 07:09:20;;;;;;;6.00;4.60;;;;;;;;;;107490;283;43051;-38
2023/05/26 07:11:53;;;;;;;6.70;4.90;;;;;;;;;;107471;286;48883;-39
2023/05/26 07:14:26;;;;;;;6.40;4.50;;;;;;;;;;107457;283;38989;-38
2023/05/26 07:17:02;;;;;;;6.00;4.40;;;;;;;;;;107506;283;39844;-39
2023/05/26 07:19:36;;;;;;;5.90;4.60;;;;;;;;;;107458;283;44000;-39
2023/05/26 07:22:09;;;;;;;5.90;4.50;;;;;;;;;;107718;282;48057;-39
2023/05/26 07:24:44;;;;;;;5.70;4.30;;;;;;;;;;107488;283;38825;-38
2023/05/26 07:27:20;;;;;;;6.50;4.70;;;;;;;;;;107547;286;39688;-39
2023/05/26 07:29:53;;;;;;;5.80;4.50;;;;;;;;;;107477;283;42826;-39
2023/05/26 07:32:26;;;;;;;6.10;4.30;;;;;;;;;;107446;283;49429;-39
2023/05/26 07:35:00;;;;;;;5.90;4.40;;;;;;;;;;107481;283;38765;-39
2023/05/26 07:37:35;;;;;;;5.20;4.00;;;;;;;;;;107485;286;40914;-39
2023/05/26 07:40:11;;;;;;;5.20;4.00;;;;;;;;;;107510;279;44048;-39
2023/05/26 07:42:45;;;;;;;6.00;4.40;;;;;;;;;;107602;286;49081;-39
2023/05/26 07:45:19;;;;;;;5.70;3.90;;;;;;;;;;107487;283;38932;-38
2023/05/26 07:47:52;;;;;;;5.20;4.00;;;;;;;;;;107498;283;40826;-38
2023/05/26 07:50:26;;;;;;;5.40;3.70;;;;;;;;;;107385;285;42907;-38
2023/05/26 07:53:01;;;;;;;5.00;3.60;;;;;;;;;;107437;283;47369;-38
2023/05/26 07:55:34;;;;;;;6.10;3.90;;;;;;;;;;107489;286;38797;-39
2023/05/26 07:58:11;;;;;;;5.90;3.80;;;;;;;;;;107505;286;39763;-38
2023/05/26 08:00:44;;;;;;;5.30;3.80;;;;;;;;;;107493;286;42955;-38
2023/05/26 08:03:18;;;;;;;4.70;3.50;;;;;;;;;;107459;286;48070;-38
2023/05/26 08:05:52;;;;;;;6.10;3.80;;;;;;;;;;107469;283;38597;-38
2023/05/26 08:08:26;;;;;;;4.50;3.40;;;;;;;;;;107512;283;39739;-38
2023/05/26 08:10:59;;;;;;;5.20;3.30;;;;;;;;;;107479;283;43928;-39
2023/05/26 08:13:34;;;;;;;4.60;3.30;;;;;;;;;;107448;283;49052;-39
2023/05/26 08:16:09;;;;;;;4.80;3.40;;;;;;;;;;107509;283;38875;-38
2023/05/26 08:18:42;;;;;;;5.60;3.40;;;;;;;;;;107514;286;39551;-38
2023/05/26 08:21:18;;;;;;;5.00;3.70;;;;;;;;;;107525;283;43009;-38
2023/05/26 08:23:52;;;;;;;4.70;3.40;;;;;;;;;;107451;286;47105;-39
2023/05/26 08:26:25;;;;;;;5.10;3.30;;;;;;;;;;107502;283;40161;-38
2023/05/26 08:28:59;;;;;;;4.80;3.20;;;;;;;;;;107505;286;39462;-36
2023/05/26 08:31:34;;;;;;;4.30;3.20;;;;;;;;;;107491;283;42933;-36
2023/05/26 08:34:07;;;;;;;4.80;3.10;;;;;;;;;;107342;283;175554;-36
2023/05/26 08:36:41;;;;;;;4.70;3.10;;;;;;;;;;107480;283;38897;-35
2023/05/26 08:39:16;;;;;;;4.90;2.90;;;;;;;;;;107379;283;175528;-35
2023/05/26 08:41:54;;;;;;;5.00;3.20;;;;;;;;;;107499;279;42849;-35
2023/05/26 08:44:29;;;;;;;4.60;3.00;;;;;;;;;;107482;286;48984;-35
2023/05/26 08:47:05;;;;;;;4.50;3.00;;;;;;;;;;107468;286;38801;-40
2023/05/26 08:49:44;;;;;;;4.80;3.30;;;;;;;;;;107495;283;40983;-40
2023/05/26 08:52:18;;;;;;;4.90;3.40;;;;;;;;;;107492;279;42845;-40
2023/05/26 08:54:52;;;;;;;4.50;2.90;;;;;;;;;;107509;283;48318;-40
2023/05/26 08:57:29;;;;;;;4.50;3.00;;;;;;;;;;107505;283;39826;-39
2023/05/26 09:00:05;;;;;;;4.70;3.00;;;;;;;;;;107534;283;39773;-40
2023/05/26 09:02:40;;;;;;;4.60;2.90;;;;;;;;;;107373;286;42664;-40
2023/05/26 09:05:14;;;;;;;4.80;3.30;;;;;;;;;;107497;286;49587;-39
2023/05/26 09:07:48;;;;;;;4.60;2.90;;;;;;;;;;107531;283;38545;-40
2023/05/26 09:10:32;;;;;;;4.90;2.90;;;;;;;;;;107510;286;39732;-40
2023/05/26 09:13:13;;;;;;;4.50;3.00;;;;;;;;;;107484;283;42879;-40
2023/05/26 09:15:52;;;;;;;4.90;2.90;;;;;;;;;;106998;283;644842;-40
2023/05/26 09:18:44;;;;;;;5.40;2.90;;;;;;;;;;107429;283;39961;-41
2023/05/26 09:21:19;;;;;;;4.50;3.00;;;;;;;;;;107490;286;40833;-40
2023/05/26 09:23:58;;;;;;;3.90;2.50;;;;;;;;;;107496;283;44110;-40
2023/05/26 09:26:35;;;;;;;4.80;2.80;;;;;;;;;;107504;283;42143;-40
2023/05/26 09:29:08;;;;;;;4.50;2.80;;;;;;;;;;107531;283;38968;-41
2023/05/26 09:31:45;;;;;;;4.60;2.90;;;;;;;;;;107520;286;40957;-40
2023/05/26 09:34:23;;;;;;;4.60;2.90;;;;;;;;;;107348;283;175548;-40
2023/05/26 09:36:56;;;;;;;4.40;2.60;;;;;;;;;;107507;283;42142;-40
2023/05/26 09:39:35;;;;;;;3.90;2.60;;;;;;;;;;107513;286;38779;-40
2023/05/26 09:42:10;;;;;;;4.50;2.60;;;;;;;;;;107385;279;39666;-40
2023/05/26 09:44:49;;;;;;;4.80;2.50;;;;;;;;;;107490;283;42724;-40
2023/05/26 09:47:25;;;;;;;4.40;2.50;;;;;;;;;;107510;286;43313;-41
2023/05/26 09:50:06;;;;;;;4.40;2.50;;;;;;;;;;107541;283;38817;-42
2023/05/26 09:52:40;;;;;;;4.60;2.60;;;;;;;;;;107537;283;39767;-41
2023/05/26 09:55:17;;;;;;;4.40;2.50;;;;;;;;;;107466;286;42776;-40
2023/05/26 09:57:54;;;;;;;4.50;2.50;;;;;;;;;;107527;283;42097;-40
2023/05/26 10:00:29;;;;;;;4.40;2.50;;;;;;;;;;107518;283;39016;-40
2023/05/26 10:03:04;;;;;;;4.10;2.30;;;;;;;;;;107481;286;39752;-40
2023/05/26 10:05:44;;;;;;;4.70;2.40;;;;;;;;;;107462;286;43216;-40
2023/05/26 10:08:22;;;;;;;4.30;2.40;;;;;;;;;;106879;283;894548;-40
2023/05/26 10:10:55;;;;;;;4.30;2.60;;;;;;;;;;107513;291;39990;-40
2023/05/26 10:13:29;;;;;;;4.40;2.50;;;;;;;;;;107504;283;39677;-40
2023/05/26 10:16:03;;;;;;;4.40;2.40;;;;;;;;;;107478;283;42996;-40
2023/05/26 10:18:39;;;;;;;3.90;2.20;;;;;;;;;;107500;283;42479;-40
2023/05/26 10:21:14;;;;;;;4.50;2.30;;;;;;;;;;107542;283;38673;-39
2023/05/26 10:23:57;;;;;;;4.60;2.40;;;;;;;;;;107403;287;177215;-40
2023/05/26 10:26:41;;;;;;;4.20;2.20;;;;;;;;;;107393;283;43910;-38
2023/05/26 10:29:20;;;;;;;4.80;2.30;;;;;;;;;;107493;283;42337;-38
2023/05/26 10:31:55;;;;;;;4.10;2.20;;;;;;;;;;107522;286;38773;-38
2023/05/26 10:34:45;;;;;;;6.50;2.90;;;;;;;;;;107509;283;39669;-39
2023/05/26 10:37:19;;;;;;;5.00;2.40;;;;;;;;;;107523;286;50148;-39
2023/05/26 10:39:54;;;;;;;5.80;2.30;;;;;;;;;;107513;286;42154;-39
2023/05/26 10:42:29;;;;;;;5.50;2.30;;;;;;;;;;107498;283;39867;-37
2023/05/26 10:45:21;;;;;;;4.90;2.20;;;;;;;;;;107454;286;40834;-37
2023/05/26 10:48:00;;;;;;;4.90;2.30;;;;;;;;;;107505;283;48165;-37
2023/05/26 10:51:09;;;;;;;4.90;2.30;;;;;;;;;;107492;283;43288;-36
2023/05/26 10:53:47;;;;;;;5.40;2.20;;;;;;;;;;107499;283;40825;-36
2023/05/26 10:56:25;;;;;;;4.40;2.20;;;;;;;;;;107436;283;40873;-36
2023/05/26 10:59:01;;;;;;;5.10;2.40;;;;;;;;;;107527;286;45220;-36
2023/05/26 11:01:35;;;;;;;5.50;2.30;;;;;;;;;;107483;283;42197;-36
2023/05/26 11:04:12;;;;;;;4.20;2.20;;;;;;;;;;107491;283;39908;-37
2023/05/26 11:06:52;;;;;;;4.60;2.20;;;;;;;;;;107432;283;39873;-36
2023/05/26 11:09:30;;;;;;;5.50;2.10;;;;;;;;;;107495;286;42912;-38
2023/05/26 11:12:09;;;;;;;5.10;2.40;;;;;;;;;;107509;283;42382;-37
2023/05/26 11:14:44;;;;;;;5.00;2.20;;;;;;;;;;107501;286;38972;-37
2023/05/26 11:17:21;;;;;;;5.20;2.20;;;;;;;;;;107458;283;39875;-39
2023/05/26 11:20:02;;;;;;;4.50;2.20;;;;;;;;;;107463;283;42678;-36
2023/05/26 11:22:36;;;;;;;5.90;2.00;;;;;;;;;;106876;283;893324;-38
2023/05/26 11:25:12;;;;;;;4.30;2.20;;;;;;;;;;107486;283;38535;-37
2023/05/26 11:27:53;;;;;;;4.50;2.20;;;;;;;;;;107440;283;39814;-36
2023/05/26 11:30:38;;;;;;;4.60;2.20;;;;;;;;;;107483;283;42963;-36
2023/05/26 11:33:15;;;;;;;4.40;2.30;;;;;;;;;;107501;286;42391;-37
2023/05/26 11:35:50;;;;;;;4.90;2.30;;;;;;;;;;107513;283;38893;-38
2023/05/26 11:38:25;;;;;;;4.70;2.40;;;;;;;;;;107427;283;39834;-37
2023/05/26 11:40:59;;;;;;;4.20;2.00;;;;;;;;;;107494;283;42634;-37
2023/05/26 11:43:35;;;;;;;4.60;2.10;;;;;;;;;;107485;283;41891;-40
2023/05/26 11:46:12;;;;;;;4.00;1.90;;;;;;;;;;107533;283;38751;-36
2023/05/26 11:48:49;;;;;;;4.70;2.10;;;;;;;;;;107495;286;39663;-36
2023/05/26 11:51:24;;;;;;;3.90;1.90;;;;;;;;;;107492;286;42901;-37
2023/05/26 11:54:01;;;;;;;4.30;2.00;;;;;;;;;;107533;283;42097;-37
2023/05/26 11:56:39;;;;;;;4.40;1.90;;;;;;;;;;107551;286;38950;-37
2023/05/26 11:59:18;;;;;;;4.20;1.90;;;;;;;;;;107622;283;45122;-37
2023/05/26 12:01:52;;;;;;;4.90;2.10;;;;;;;;;;107515;283;43199;-38
2023/05/26 12:04:45;;;;;;;4.10;1.90;;;;;;;;;;107501;283;42179;-36
2023/05/26 12:07:34;;;;;;;4.30;2.00;;;;;;;;;;107455;283;39024;-37
2023/05/26 12:10:10;;;;;;;4.50;2.00;;;;;;;;;;107353;283;175485;-37
2023/05/26 12:12:54;;;;;;;4.30;2.00;;;;;;;;;;107462;286;43135;-37
2023/05/26 12:15:28;;;;;;;4.00;1.90;;;;;;;;;;107525;286;42192;-37
2023/05/26 12:18:02;;;;;;;4.50;1.70;;;;;;;;;;107479;286;40144;-37
2023/05/26 12:20:41;;;;;;;4.40;2.00;;;;;;;;;;107452;286;39861;-35
2023/05/26 12:23:27;;;;;;;4.80;1.90;;;;;;;;;;107568;286;44047;-36
2023/05/26 12:26:04;;;;;;;4.50;1.70;;;;;;;;;;107538;283;43250;-36
2023/05/26 12:28:41;;;;;;;3.80;1.80;;;;;;;;;;107497;283;38957;-36
2023/05/26 12:31:18;;;;;;;4.10;1.90;;;;;;;;;;107391;283;175474;-40
2023/05/26 12:33:52;;;;;;;4.20;1.80;;;;;;;;;;107443;283;42889;-40
2023/05/26 12:36:29;;;;;;;4.00;1.70;;;;;;;;;;107546;286;42360;-40
2023/05/26 12:39:04;;;;;;;3.90;1.80;;;;;;;;;;107573;286;38942;-41
2023/05/26 12:41:40;;;;;;;3.80;1.90;;;;;;;;;;107572;283;41042;-41
2023/05/26 12:44:13;;;;;;;4.70;1.90;;;;;;;;;;107628;286;44025;-43
2023/05/26 12:46:48;;;;;;;3.70;1.80;;;;;;;;;;107570;286;42223;-42
2023/05/26 12:49:23;;;;;;;4.30;1.90;;;;;;;;;;107527;283;38778;-41
2023/05/26 12:51:58;;;;;;;4.00;1.80;;;;;;;;;;107662;286;40766;-42
2023/05/26 12:54:33;;;;;;;4.20;1.80;;;;;;;;;;107559;286;42983;-42
2023/05/26 12:57:08;;;;;;;4.90;1.90;;;;;;;;;;107511;286;42223;-39
2023/05/26 12:59:42;;;;;;;3.80;1.70;;;;;;;;;;107390;284;38782;-41
2023/05/26 13:02:16;;;;;;;4.40;1.80;;;;;;;;;;107639;283;40881;-41
2023/05/26 13:04:50;;;;;;;4.20;1.70;;;;;;;;;;107593;286;42840;-42
2023/05/26 13:07:25;;;;;;;4.10;1.60;;;;;;;;;;107377;283;175522;-42
2023/05/26 13:09:59;;;;;;;3.90;1.70;;;;;;;;;;107575;286;38781;-41
2023/05/26 13:12:35;;;;;;;3.60;1.70;;;;;;;;;;107545;283;39726;-42
2023/05/26 13:15:12;;;;;;;4.20;1.60;;;;;;;;;;107518;283;44122;-36
2023/05/26 13:17:47;;;;;;;4.00;1.60;;;;;;;;;;107407;286;43335;-36
2023/05/26 13:20:21;;;;;;;3.40;1.50;;;;;;;;;;107475;283;38987;-36
2023/05/26 13:22:55;;;;;;;3.70;1.60;;;;;;;;;;107552;283;41909;-36
2023/05/26 13:25:29;;;;;;;3.50;1.60;;;;;;;;;;107526;283;43002;-36
2023/05/26 13:28:02;;;;;;;3.80;1.60;;;;;;;;;;107545;286;42309;-41
2023/05/26 13:30:39;;;;;;;4.10;1.60;;;;;;;;;;107473;283;38908;-43
2023/05/26 13:33:14;;;;;;;3.90;1.70;;;;;;;;;;107504;283;39979;-42
2023/05/26 13:35:47;;;;;;;3.30;1.50;;;;;;;;;;107449;284;44944;-44
2023/05/26 13:38:22;;;;;;;3.70;1.60;;;;;;;;;;107432;283;175454;-40
2023/05/26 13:40:55;;;;;;;4.90;1.90;;;;;;;;;;107532;286;38872;-44
2023/05/26 13:43:29;;;;;;;4.10;1.70;;;;;;;;;;107498;282;39698;-44
2023/05/26 13:46:03;;;;;;;4.70;1.70;;;;;;;;;;107554;283;42913;-45
2023/05/26 13:48:36;;;;;;;4.40;1.80;;;;;;;;;;107561;286;42268;-45
2023/05/26 13:51:12;;;;;;;4.90;1.60;;;;;;;;;;107535;283;38972;-43
2023/05/26 13:53:50;;;;;;;4.90;1.70;;;;;;;;;;107445;284;39721;-44
2023/05/26 13:56:24;;;;;;;4.00;1.60;;;;;;;;;;107403;287;43019;-40
2023/05/26 13:58:59;;;;;;;4.20;1.70;;;;;;;;;;107502;283;41921;-40
2023/05/26 14:01:33;;;;;;;3.80;1.40;;;;;;;;;;107563;283;38777;-40
2023/05/26 14:04:13;;;;;;;3.80;1.70;;;;;;;;;;107558;278;39702;-39
2023/05/26 14:06:51;;;;;;;4.10;1.70;;;;;;;;;;107563;283;44083;-37
2023/05/26 14:09:41;;;;;;;3.50;1.40;;;;;;;;;;107538;283;42595;-35
2023/05/26 14:12:14;;;;;;;3.80;1.50;;;;;;;;;;107507;283;38916;-38
2023/05/26 14:14:51;;;;;;;4.00;1.70;;;;;;;;;;107550;285;39786;-38
2023/05/26 14:17:24;;;;;;;4.20;1.60;;;;;;;;;;107587;290;42606;-38
2023/05/26 14:19:58;;;;;;;4.40;1.70;;;;;;;;;;107509;279;42115;-39
2023/05/26 14:22:44;;;;;;;3.60;1.50;;;;;;;;;;107570;283;38979;-38
2023/05/26 14:25:17;;;;;;;4.00;1.60;;;;;;;;;;107565;283;39812;-37
2023/05/26 14:27:52;;;;;;;4.00;1.60;;;;;;;;;;107512;286;42890;-35
2023/05/26 14:30:26;;;;;;;3.50;1.50;;;;;;;;;;107562;286;42153;-34
2023/05/26 14:33:03;;;;;;;4.50;1.60;;;;;;;;;;107584;286;40127;-34
2023/05/26 14:35:38;;;;;;;4.50;1.70;;;;;;;;;;107552;283;39723;-34
2023/05/26 14:38:13;;;;;;;4.20;1.60;;;;;;;;;;107397;282;177189;-34
2023/05/26 14:40:47;;;;;;;3.30;1.60;;;;;;;;;;107456;286;42296;-34
2023/05/26 14:43:20;;;;;;;4.30;1.50;;;;;;;;;;107537;283;38805;-38
2023/05/26 14:45:54;;;;;;;4.40;1.60;;;;;;;;;;107505;283;40803;-37
2023/05/26 14:48:30;;;;;;;4.00;1.60;;;;;;;;;;107529;283;43883;-37
2023/05/26 14:51:04;;;;;;;3.70;1.60;;;;;;;;;;107509;278;42162;-37
2023/05/26 14:53:37;;;;;;;4.10;1.70;;;;;;;;;;107487;285;38563;-37
2023/05/26 14:56:13;;;;;;;3.90;1.60;;;;;;;;;;107527;283;41928;-37
2023/05/26 14:58:47;;;;;;;4.30;1.60;;;;;;;;;;107595;283;42657;-37
2023/05/26 15:01:21;;;;;;;3.90;1.70;;;;;;;;;;107428;286;42134;-38
2023/05/26 15:03:55;;;;;;;4.40;1.90;;;;;;;;;;107549;285;38902;-37
2023/05/26 15:06:47;;;;;;;4.10;1.60;;;;;;;;;;107539;282;39693;-37
2023/05/26 15:09:20;;;;;;;4.70;1.80;;;;;;;;;;107513;286;44812;-37
2023/05/26 15:11:54;;;;;;;3.40;1.50;;;;;;;;;;107501;282;42326;-40
2023/05/26 15:14:28;;;;;;;4.00;1.60;;;;;;;;;;107520;283;39007;-41
2023/05/26 15:17:01;;;;;;;4.00;1.60;;;;;;;;;;107500;283;39652;-38
2023/05/26 15:19:37;;;;;;;3.60;1.50;;;;;;;;;;107566;285;42956;-38
2023/05/26 15:22:11;;;;;;;3.40;1.50;;;;;;;;;;107489;282;42231;-38
2023/05/26 15:24:45;;;;;;;4.50;1.60;;;;;;;;;;107487;283;39888;-38
2023/05/26 15:27:18;;;;;;;4.60;1.80;;;;;;;;;;107600;283;39666;-38
2023/05/26 15:29:52;;;;;;;4.10;1.60;;;;;;;;;;107522;283;42878;-38
2023/05/26 15:32:25;;;;;;;4.50;1.80;;;;;;;;;;107476;283;42122;-38
2023/05/26 15:35:01;;;;;;;3.70;1.50;;;;;;;;;;107560;283;39095;-39